Etusivu
METAR-TAF:

METAR-TAF

Lentoasemat :

Kindersley, Saskatchewan, Kanada

Leveyspiiri: 51-31N, Pituuspiiri: 109-10W, korkeus merenpinnasta: 694 m

Tämänhetkinen sää

Tämä raportti tehtiin 24 minuuttia sitten, kello 13.00 UTC
Tuuli 4 kn etelästä/lounaasta, vaihdellen etelän/kaakon ja lännen/lounaan välillä
Lämpötila -3°C
Kosteus 93%
Ilmanpaine 1015 hPa
Näkyvyys: 24.1 km
Pilvistä 700 ft:n korkeudessa

METAR: CYKY 131300Z 21004KT 150V240 15SM OVC007 M03/M04 A2997 RMK ST8 SLP185

Aika: 07:24 (13:24 UTC)


TAF: puuttuu

Säähavainnot ja -ennusteet yli 4000 lentoasemalta (METAR- ja TAF-raportit).

Käytössä olevat sääasemat on merkitty karttaan keltaisilla ja punaisilla pisteillä.

Aseta hiiri pisteen päälle nähdäksesi sääaseman nimen.

Klikkaa sitten nähdäksesi säähavainnot ja -ennusteet.

Kartan vaihtaminen: klikkaa mustalla rastilla varustettuja vihreitä pisteitä, niin voit zoomata sisään; viivalla varustettua vihreää pistettä, niin voit zoomata ulos tai vihreitä nuolia, niin pääset viereisille kartoille.


METAR-TAF: